createdAt,value
2022-09-03T00:01:59.054Z,99761.94
2022-09-03T00:04:36.169Z,99760.69
2022-09-03T00:07:11.629Z,99766.41
2022-09-03T00:09:49.481Z,99768.78
2022-09-03T00:12:22.590Z,99772.25
2022-09-03T00:14:55.826Z,99769.56
2022-09-03T00:17:44.775Z,99763.53
2022-09-03T00:20:22.630Z,99767.00
2022-09-03T00:22:53.214Z,99761.75
2022-09-03T00:25:26.850Z,99759.06
2022-09-03T00:27:59.064Z,99757.78
2022-09-03T00:30:27.654Z,99755.44
2022-09-03T00:33:03.055Z,99748.63
2022-09-03T00:35:34.292Z,99743.56
2022-09-03T00:38:01.055Z,99750.88
2022-09-03T00:40:37.652Z,99747.22
2022-09-03T00:43:34.398Z,99737.72
2022-09-03T00:46:20.537Z,99744.72
2022-09-03T00:49:05.779Z,99741.09
2022-09-03T00:52:11.526Z,99739.47
2022-09-03T00:54:56.329Z,99732.06
2022-09-03T00:57:47.990Z,99732.34
2022-09-03T01:00:21.876Z,99736.50
2022-09-03T01:03:08.060Z,99734.91
2022-09-03T01:05:56.494Z,99739.22
2022-09-03T01:09:09.619Z,99737.31
2022-09-03T01:12:00.821Z,99734.16
2022-09-03T01:14:42.492Z,99735.41
2022-09-03T01:17:36.958Z,99736.06
2022-09-03T01:20:04.094Z,99730.34
2022-09-03T01:22:49.139Z,99733.03
2022-09-03T01:25:49.976Z,99727.19
2022-09-03T01:28:17.406Z,99737.31
2022-09-03T01:30:49.384Z,99734.25
2022-09-03T01:33:27.995Z,99733.47
2022-09-03T01:36:11.396Z,99727.44
2022-09-03T01:38:50.601Z,99725.13
2022-09-03T01:41:45.062Z,99717.97
2022-09-03T01:44:41.571Z,99711.97
2022-09-03T01:47:56.954Z,99716.09
2022-09-03T01:50:34.192Z,99712.28
2022-09-03T01:53:11.098Z,99707.81
2022-09-03T01:56:09.983Z,99711.63
2022-09-03T01:58:59.684Z,99704.94
2022-09-03T02:01:33.100Z,99711.50
2022-09-03T02:04:00.210Z,99702.75
2022-09-03T02:06:28.037Z,99701.00
2022-09-03T02:08:54.614Z,99699.75
2022-09-03T02:11:21.439Z,99695.91
2022-09-03T02:13:52.578Z,99702.91
2022-09-03T02:16:24.363Z,99691.84
2022-09-03T02:18:54.615Z,99691.03
2022-09-03T02:21:25.523Z,99693.09
2022-09-03T02:23:52.442Z,99689.44
2022-09-03T02:26:22.871Z,99694.50
2022-09-03T02:28:50.762Z,99691.47
2022-09-03T02:31:17.677Z,99693.53
2022-09-03T02:33:47.570Z,99685.91
2022-09-03T02:36:17.940Z,99687.63
2022-09-03T02:38:45.877Z,99681.63
2022-09-03T02:41:15.518Z,99680.22
2022-09-03T02:43:53.960Z,99674.69
2022-09-03T02:46:27.805Z,99672.63
2022-09-03T02:48:54.977Z,99675.47
2022-09-03T02:51:22.066Z,99672.00
2022-09-03T02:53:48.565Z,99685.31
2022-09-03T02:56:17.862Z,99675.50
2022-09-03T02:58:44.490Z,99673.78
2022-09-03T03:01:11.755Z,99681.22
2022-09-03T03:03:44.640Z,99673.16
2022-09-03T03:06:13.901Z,99674.38
2022-09-03T03:08:40.711Z,99666.47
2022-09-03T03:11:07.614Z,99666.00
2022-09-03T03:13:34.166Z,99670.94
2022-09-03T03:16:03.217Z,99666.00
2022-09-03T03:18:30.329Z,99673.00
2022-09-03T03:20:57.583Z,99671.72
2022-09-03T03:23:24.238Z,99658.44
2022-09-03T03:25:50.811Z,99663.00
2022-09-03T03:28:18.056Z,99654.44
2022-09-03T03:30:47.636Z,99647.47
2022-09-03T03:33:14.241Z,99643.50
2022-09-03T03:35:42.607Z,99641.75
2022-09-03T03:38:09.232Z,99647.28
2022-09-03T03:40:38.320Z,99638.22
2022-09-03T03:43:04.818Z,99631.44
2022-09-03T03:45:31.322Z,99629.38
2022-09-03T03:47:59.366Z,99637.31
2022-09-03T03:50:26.166Z,99634.78
2022-09-03T03:52:52.645Z,99637.31
2022-09-03T03:55:19.158Z,99633.38
2022-09-03T03:57:46.850Z,99644.47
2022-09-03T04:00:14.627Z,99638.94
2022-09-03T04:02:41.198Z,99637.50
2022-09-03T04:05:08.146Z,99636.53
2022-09-03T04:07:35.121Z,99632.91
2022-09-03T04:10:01.778Z,99631.31
2022-09-03T04:12:28.324Z,99634.47
2022-09-03T04:14:54.808Z,99634.03
2022-09-03T04:17:25.082Z,99634.47
2022-09-03T04:19:52.122Z,99632.75
2022-09-03T04:22:19.653Z,99637.66
2022-09-03T04:24:46.278Z,99640.69
2022-09-03T04:27:12.818Z,99638.47
2022-09-03T04:29:39.305Z,99646.22
2022-09-03T04:32:24.902Z,99643.03
2022-09-03T04:34:51.402Z,99633.88
2022-09-03T04:37:19.870Z,99638.75
2022-09-03T04:39:46.605Z,99634.97
2022-09-03T04:42:13.147Z,99644.97
2022-09-03T04:44:41.086Z,99653.53
2022-09-03T04:47:07.640Z,99647.34
2022-09-03T04:49:34.625Z,99645.63
2022-09-03T04:52:01.509Z,99647.66
2022-09-03T04:54:29.489Z,99645.75
2022-09-03T04:56:56.504Z,99648.75
2022-09-03T04:59:23.002Z,99633.72
2022-09-03T05:01:49.737Z,99640.50
2022-09-03T05:04:16.269Z,99637.03
2022-09-03T05:06:43.477Z,99635.78
2022-09-03T05:09:09.998Z,99632.75
2022-09-03T05:11:36.839Z,99627.84
2022-09-03T05:14:05.854Z,99639.25
2022-09-03T05:16:32.729Z,99639.41
2022-09-03T05:19:01.226Z,99636.09
2022-09-03T05:21:28.932Z,99630.09
2022-09-03T05:23:55.818Z,99644.81
2022-09-03T05:26:25.067Z,99638.81
2022-09-03T05:28:57.168Z,99639.59
2022-09-03T05:31:26.342Z,99635.47
2022-09-03T05:33:55.545Z,99642.09
2022-09-03T05:36:24.341Z,99643.88
2022-09-03T05:38:51.335Z,99636.72
2022-09-03T05:41:19.098Z,99634.97
2022-09-03T05:43:51.948Z,99628.44
2022-09-03T05:46:18.570Z,99640.34
2022-09-03T05:48:45.609Z,99646.72
2022-09-03T05:51:16.386Z,99643.53
2022-09-03T05:53:45.625Z,99643.03
2022-09-03T05:56:18.011Z,99635.75
2022-09-03T05:58:49.873Z,99642.41
2022-09-03T06:01:25.270Z,99639.09
2022-09-03T06:04:00.580Z,99637.81
2022-09-03T06:06:29.075Z,99637.63
2022-09-03T06:08:58.325Z,99645.22
2022-09-03T06:11:28.081Z,99631.69
2022-09-03T06:13:56.623Z,99634.19
2022-09-03T06:16:27.220Z,99632.78
2022-09-03T06:18:58.861Z,99632.63
2022-09-03T06:21:25.398Z,99635.13
2022-09-03T06:23:56.070Z,99640.69
2022-09-03T06:26:25.849Z,99645.56
2022-09-03T06:28:55.037Z,99647.19
2022-09-03T06:31:22.398Z,99648.13
2022-09-03T06:33:49.201Z,99633.84
2022-09-03T06:36:19.933Z,99640.78
2022-09-03T06:38:47.560Z,99638.84
2022-09-03T06:41:25.039Z,99632.81
2022-09-03T06:44:13.156Z,99633.91
2022-09-03T06:46:44.264Z,99634.69
2022-09-03T06:49:11.742Z,99642.41
2022-09-03T06:51:39.067Z,99638.41
2022-09-03T06:54:07.800Z,99642.53
2022-09-03T06:56:39.883Z,99643.97
2022-09-03T06:59:12.087Z,99642.13
2022-09-03T07:01:45.180Z,99646.75
2022-09-03T07:04:16.192Z,99648.84
2022-09-03T07:06:44.213Z,99649.19
2022-09-03T07:09:12.173Z,99650.75
2022-09-03T07:11:46.792Z,99645.84
2022-09-03T07:14:14.294Z,99646.22
2022-09-03T07:16:42.611Z,99650.25
2022-09-03T07:19:09.615Z,99655.38
2022-09-03T07:21:37.113Z,99650.44
2022-09-03T07:24:05.756Z,99654.31
2022-09-03T07:26:38.639Z,99652.09
2022-09-03T07:29:07.842Z,99651.13
2022-09-03T07:31:37.371Z,99646.09
2022-09-03T07:34:10.381Z,99639.34
2022-09-03T07:36:43.329Z,99647.34
2022-09-03T07:39:11.651Z,99650.38
2022-09-03T07:41:39.084Z,99651.25
2022-09-03T07:44:05.928Z,99649.91
2022-09-03T07:46:34.417Z,99655.09
2022-09-03T07:49:05.149Z,99656.13
2022-09-03T07:51:35.723Z,99658.38
2022-09-03T07:54:06.907Z,99665.25
2022-09-03T07:56:37.816Z,99667.28
2022-09-03T07:59:04.737Z,99665.81
2022-09-03T08:01:32.965Z,99656.00
2022-09-03T08:04:01.651Z,99662.56
2022-09-03T08:06:30.116Z,99660.50
2022-09-03T08:09:04.168Z,99660.19
2022-09-03T08:11:32.252Z,99658.72
2022-09-03T08:14:03.437Z,99667.03
2022-09-03T08:16:32.674Z,99666.31
2022-09-03T08:18:59.494Z,99661.09
2022-09-03T08:21:27.383Z,99678.75
2022-09-03T08:24:02.415Z,99674.63
2022-09-03T08:26:34.609Z,99674.75
2022-09-03T08:29:01.334Z,99677.56
2022-09-03T08:31:29.261Z,99672.84
2022-09-03T08:36:31.607Z,99676.28
2022-09-03T08:39:04.430Z,99670.88
2022-09-03T08:41:58.433Z,99681.03
2022-09-03T08:44:47.384Z,99676.66
2022-09-03T08:47:29.194Z,99681.25
2022-09-03T08:50:12.647Z,99683.94
2022-09-03T08:52:49.178Z,99672.56
2022-09-03T08:55:28.524Z,99681.38
2022-09-03T08:58:03.277Z,99669.97
2022-09-03T09:01:03.280Z,99678.34
2022-09-03T09:03:45.010Z,99682.56
2022-09-03T09:06:31.096Z,99683.50
2022-09-03T09:09:15.900Z,99675.16
2022-09-03T09:12:03.754Z,99690.22
2022-09-03T09:14:48.625Z,99685.41
2022-09-03T09:17:20.937Z,99692.16
2022-09-03T09:20:08.694Z,99698.63
2022-09-03T09:22:41.324Z,99690.88
2022-09-03T09:25:15.217Z,99692.72
2022-09-03T09:27:59.538Z,99692.22
2022-09-03T09:30:27.195Z,99700.16
2022-09-03T09:32:54.053Z,99709.16
2022-09-03T09:35:20.832Z,99709.06
2022-09-03T09:37:58.606Z,99701.84
2022-09-03T09:40:33.943Z,99701.91
2022-09-03T09:43:19.630Z,99698.69
2022-09-03T09:45:49.291Z,99697.31
2022-09-03T09:48:18.555Z,99696.13
2022-09-03T09:50:45.279Z,99694.88
2022-09-03T09:53:15.305Z,99696.94
2022-09-03T09:55:56.160Z,99696.31
2022-09-03T09:58:25.330Z,99693.34
2022-09-03T10:01:01.299Z,99699.03
2022-09-03T10:03:29.857Z,99701.50
2022-09-03T10:06:27.546Z,99701.00
2022-09-03T10:09:11.732Z,99705.41
2022-09-03T10:11:42.983Z,99705.59
2022-09-03T10:14:36.930Z,99697.44
2022-09-03T10:17:36.684Z,99702.19
2022-09-03T10:20:29.352Z,99700.41
2022-09-03T10:23:04.807Z,99700.41
2022-09-03T10:25:58.112Z,99698.94
2022-09-03T10:28:29.406Z,99697.91
2022-09-03T10:31:35.000Z,99690.22
2022-09-03T10:34:20.910Z,99697.41
2022-09-03T10:37:02.656Z,99693.66
2022-09-03T10:39:51.599Z,99692.03
2022-09-03T10:42:56.939Z,99697.03
2022-09-03T10:45:45.703Z,99694.88
2022-09-03T10:48:32.925Z,99683.50
2022-09-03T10:51:11.414Z,99694.25
2022-09-03T10:54:13.719Z,99689.63
2022-09-03T10:56:51.521Z,99687.38
2022-09-03T10:59:36.600Z,99689.22
2022-09-03T11:02:32.476Z,99686.75
2022-09-03T11:05:08.011Z,99692.06
2022-09-03T11:07:47.725Z,99691.66
2022-09-03T11:10:30.547Z,99692.81
2022-09-03T11:13:20.850Z,99687.13
2022-09-03T11:16:01.114Z,99693.81
2022-09-03T11:18:48.328Z,99690.31
2022-09-03T11:21:18.478Z,99677.63
2022-09-03T11:23:54.998Z,99690.97
2022-09-03T11:26:26.233Z,99690.00
2022-09-03T11:29:13.433Z,99689.84
2022-09-03T11:31:59.014Z,99696.66
2022-09-03T11:34:32.321Z,99679.56
2022-09-03T11:37:30.257Z,99675.41
2022-09-03T11:40:20.203Z,99675.03
2022-09-03T11:42:47.333Z,99684.41
2022-09-03T11:45:21.870Z,99674.00
2022-09-03T11:47:49.476Z,99675.50
2022-09-03T11:50:16.857Z,99670.47
2022-09-03T11:52:43.474Z,99666.53
2022-09-03T11:55:09.984Z,99669.09
2022-09-03T11:57:43.739Z,99672.53
2022-09-03T12:00:26.718Z,99669.75
2022-09-03T12:03:01.512Z,99664.91
2022-09-03T12:05:48.222Z,99665.94
2022-09-03T12:08:17.878Z,99679.19
2022-09-03T12:10:47.518Z,99672.56
2022-09-03T12:13:26.552Z,99665.28
2022-09-03T12:16:37.703Z,99671.38
2022-09-03T12:19:43.074Z,99668.44
2022-09-03T12:22:17.627Z,99666.72
2022-09-03T12:24:45.198Z,99670.28
2022-09-03T12:27:33.362Z,99672.16
2022-09-03T12:30:02.175Z,99667.97
2022-09-03T12:32:39.333Z,99671.88
2022-09-03T12:38:23.894Z,99669.91
2022-09-03T12:43:37.567Z,99668.31
2022-09-03T12:46:13.257Z,99669.78
2022-09-03T12:48:46.945Z,99661.34
2022-09-03T12:54:01.309Z,99658.97
2022-09-03T12:56:31.035Z,99663.91
2022-09-03T12:59:03.508Z,99661.19
2022-09-03T13:01:35.326Z,99663.13
2022-09-03T13:04:24.761Z,99653.16
2022-09-03T13:07:03.645Z,99657.78
2022-09-03T13:09:32.589Z,99651.25
2022-09-03T13:11:59.266Z,99662.75
2022-09-03T13:14:27.306Z,99659.72
2022-09-03T13:17:12.586Z,99656.84
2022-09-03T13:19:39.055Z,99657.97
2022-09-03T13:22:27.678Z,99663.16
2022-09-03T13:25:00.829Z,99659.81
2022-09-03T13:27:52.204Z,99647.88
2022-09-03T13:30:31.134Z,99656.00
2022-09-03T13:33:29.435Z,99649.69
2022-09-03T13:36:22.810Z,99653.16
2022-09-03T13:39:05.997Z,99650.91
2022-09-03T13:41:38.741Z,99657.75
2022-09-03T13:44:20.083Z,99654.41
2022-09-03T13:46:55.660Z,99660.13
2022-09-03T13:49:46.709Z,99654.19
2022-09-03T13:52:35.069Z,99650.91
2022-09-03T13:55:20.089Z,99649.09
2022-09-03T13:57:49.629Z,99640.72
2022-09-03T14:00:29.187Z,99648.50
2022-09-03T14:03:07.466Z,99653.69
2022-09-03T14:05:54.818Z,99655.47
2022-09-03T14:08:56.715Z,99659.22
2022-09-03T14:11:40.522Z,99654.50
2022-09-03T14:14:19.592Z,99648.97
2022-09-03T14:17:02.759Z,99650.50
2022-09-03T14:20:11.004Z,99655.84
2022-09-03T14:23:05.283Z,99652.94
2022-09-03T14:25:32.865Z,99662.59
2022-09-03T14:28:26.485Z,99658.16
2022-09-03T14:31:06.143Z,99657.19
2022-09-03T14:33:45.280Z,99662.41
2022-09-03T14:36:24.250Z,99656.34
2022-09-03T14:38:50.697Z,99653.50
2022-09-03T14:41:50.576Z,99657.44
2022-09-03T14:44:41.874Z,99647.44
2022-09-03T14:48:03.993Z,99650.53
2022-09-03T14:50:51.305Z,99645.00
2022-09-03T14:53:55.733Z,99652.75
2022-09-03T14:56:40.321Z,99642.63
2022-09-03T14:59:06.832Z,99644.59
2022-09-03T15:01:38.691Z,99645.13
2022-09-03T15:04:30.082Z,99644.47
2022-09-03T15:07:27.806Z,99647.75
2022-09-03T15:10:16.955Z,99655.69
2022-09-03T15:12:49.929Z,99644.81
2022-09-03T15:15:21.948Z,99659.16
2022-09-03T15:17:55.632Z,99661.56
2022-09-03T15:20:42.714Z,99661.78
2022-09-03T15:23:37.955Z,99660.66
2022-09-03T15:26:38.749Z,99654.56
2022-09-03T15:29:11.581Z,99660.34
2022-09-03T15:31:58.078Z,99659.94
2022-09-03T15:34:30.762Z,99654.66
2022-09-03T15:37:03.976Z,99657.25
2022-09-03T15:39:37.679Z,99663.00
2022-09-03T15:42:11.151Z,99658.69
2022-09-03T15:44:48.085Z,99659.84
2022-09-03T15:47:51.962Z,99663.34
2022-09-03T15:50:27.176Z,99665.59
2022-09-03T15:53:03.867Z,99663.94
2022-09-03T15:55:39.643Z,99666.13
2022-09-03T15:58:30.650Z,99660.78
2022-09-03T16:01:04.657Z,99663.72
2022-09-03T16:03:49.768Z,99665.34
2022-09-03T16:06:42.338Z,99668.78
2022-09-03T16:09:25.469Z,99671.84
2022-09-03T16:12:10.834Z,99669.94
2022-09-03T16:14:51.302Z,99669.28
2022-09-03T16:17:40.026Z,99671.44
2022-09-03T16:20:15.611Z,99667.53
2022-09-03T16:22:59.433Z,99669.88
2022-09-03T16:25:52.760Z,99671.44
2022-09-03T16:28:42.131Z,99666.44
2022-09-03T16:31:33.797Z,99669.88
2022-09-03T16:34:24.596Z,99673.69
2022-09-03T16:37:07.853Z,99672.44
2022-09-03T16:39:43.194Z,99677.91
2022-09-03T16:42:35.486Z,99681.06
2022-09-03T16:45:23.843Z,99682.63
2022-09-03T16:48:27.610Z,99682.38
2022-09-03T16:51:17.043Z,99683.75
2022-09-03T16:54:09.046Z,99682.34
2022-09-03T16:56:35.966Z,99687.63
2022-09-03T16:59:02.428Z,99677.50
2022-09-03T17:01:52.430Z,99682.78
2022-09-03T17:04:51.634Z,99685.19
2022-09-03T17:07:30.651Z,99682.84
2022-09-03T17:10:42.183Z,99683.84
2022-09-03T17:13:46.495Z,99687.25
2022-09-03T17:16:25.284Z,99692.09
2022-09-03T17:19:15.220Z,99690.63
2022-09-03T17:22:03.676Z,99695.69
2022-09-03T17:25:04.036Z,99709.34
2022-09-03T17:28:00.031Z,99712.19
2022-09-03T17:30:44.030Z,99712.19
2022-09-03T17:33:45.604Z,99711.19
2022-09-03T17:36:33.661Z,99711.38
2022-09-03T17:39:06.077Z,99712.78
2022-09-03T17:42:06.340Z,99709.09
2022-09-03T17:45:11.305Z,99705.31
2022-09-03T17:48:22.802Z,99707.34
2022-09-03T17:50:55.396Z,99709.34
2022-09-03T17:53:26.950Z,99716.06
2022-09-03T17:55:58.718Z,99713.81
2022-09-03T17:58:34.951Z,99711.91
2022-09-03T18:01:10.508Z,99718.66
2022-09-03T18:03:47.746Z,99718.81
2022-09-03T18:06:42.378Z,99722.47
2022-09-03T18:09:38.091Z,99722.84
2022-09-03T18:12:18.812Z,99728.53
2022-09-03T18:15:19.012Z,99734.28
2022-09-03T18:18:07.470Z,99732.97
2022-09-03T18:21:22.916Z,99730.78
2022-09-03T18:24:29.509Z,99737.38
2022-09-03T18:27:20.825Z,99733.88
2022-09-03T18:30:12.913Z,99743.16
2022-09-03T18:32:58.165Z,99742.56
2022-09-03T18:35:47.987Z,99758.66
2022-09-03T18:38:33.975Z,99767.56
2022-09-03T18:41:26.693Z,99755.41
2022-09-03T18:44:31.338Z,99761.69
2022-09-03T18:50:53.318Z,99760.47
2022-09-03T18:53:52.565Z,99768.19
2022-09-03T18:57:05.170Z,99776.44
2022-09-03T19:00:18.422Z,99783.03
2022-09-03T19:03:19.238Z,99776.69
2022-09-03T19:06:37.292Z,99787.56
2022-09-03T19:09:22.206Z,99784.59
2022-09-03T19:12:34.866Z,99797.94
2022-09-03T19:15:27.411Z,99794.66
2022-09-03T19:18:41.743Z,99798.28
2022-09-03T19:22:02.950Z,99800.34
2022-09-03T19:24:49.352Z,99800.53
2022-09-03T19:27:59.640Z,99800.47
2022-09-03T19:31:01.502Z,99809.69
2022-09-03T19:34:19.382Z,99806.78
2022-09-03T19:37:07.414Z,99813.78
2022-09-03T19:40:21.699Z,99822.69
2022-09-03T19:43:44.406Z,99813.31
2022-09-03T19:46:45.129Z,99816.81
2022-09-03T19:49:36.829Z,99823.34
2022-09-03T19:52:45.818Z,99826.72
2022-09-03T19:55:38.333Z,99826.97
2022-09-03T19:58:42.015Z,99828.78
2022-09-03T20:01:28.393Z,99834.41
2022-09-03T20:04:17.731Z,99830.34
2022-09-03T20:07:04.528Z,99831.00
2022-09-03T20:09:56.499Z,99832.44
2022-09-03T20:12:28.128Z,99834.56
2022-09-03T20:14:54.697Z,99841.59
2022-09-03T20:17:43.190Z,99840.78
2022-09-03T20:20:34.259Z,99843.47
2022-09-03T20:23:17.860Z,99845.75
2022-09-03T20:25:44.345Z,99855.44
2022-09-03T20:28:19.784Z,99854.88
2022-09-03T20:31:17.502Z,99857.13
2022-09-03T20:34:19.181Z,99857.13
2022-09-03T20:37:05.065Z,99868.16
2022-09-03T20:39:57.988Z,99866.03
2022-09-03T20:42:41.142Z,99867.38
2022-09-03T20:45:19.585Z,99869.72
2022-09-03T20:47:49.232Z,99871.00
2022-09-03T20:50:34.713Z,99874.25
2022-09-03T20:53:15.463Z,99876.84
2022-09-03T20:55:44.429Z,99876.50
2022-09-03T20:58:38.426Z,99871.88
2022-09-03T21:04:02.362Z,99889.91
2022-09-03T21:06:36.814Z,99893.28
2022-09-03T21:09:36.878Z,99894.06
2022-09-03T21:12:15.528Z,99899.22
2022-09-03T21:15:12.347Z,99898.28
2022-09-03T21:18:23.557Z,99896.81
2022-09-03T21:21:05.137Z,99907.16
2022-09-03T21:23:40.202Z,99908.28
2022-09-03T21:26:16.957Z,99917.41
2022-09-03T21:29:08.383Z,99917.25
2022-09-03T21:31:44.296Z,99919.19
2022-09-03T21:34:20.982Z,99922.00
2022-09-03T21:36:49.128Z,99929.78
2022-09-03T21:39:24.465Z,99929.47
2022-09-03T21:42:12.086Z,99927.44
2022-09-03T21:44:50.994Z,99931.56
2022-09-03T21:47:21.341Z,99936.19
2022-09-03T21:50:00.910Z,99935.41
2022-09-03T21:52:37.255Z,99931.13
2022-09-03T21:55:26.209Z,99938.63
2022-09-03T21:58:15.647Z,99936.41
2022-09-03T22:00:43.778Z,99946.75
2022-09-03T22:03:10.501Z,99935.91
2022-09-03T22:06:03.186Z,99940.19
2022-09-03T22:08:45.340Z,99940.84
2022-09-03T22:11:18.123Z,99944.22
2022-09-03T22:14:06.450Z,99951.84
2022-09-03T22:16:51.433Z,99949.34
2022-09-03T22:19:17.933Z,99939.50
2022-09-03T22:21:44.425Z,99942.34
2022-09-03T22:24:43.070Z,99945.91
2022-09-03T22:27:22.532Z,99951.03
2022-09-03T22:30:02.616Z,99945.28
2022-09-03T22:32:49.984Z,99942.13
2022-09-03T22:35:41.521Z,99950.09
2022-09-03T22:38:26.977Z,99945.06
2022-09-03T22:40:56.531Z,99939.53
2022-09-03T22:43:38.357Z,99941.44
2022-09-03T22:46:17.302Z,99942.56
2022-09-03T22:48:46.550Z,99935.88
2022-09-03T22:51:13.524Z,99933.53
2022-09-03T22:54:13.422Z,99929.25
2022-09-03T22:56:41.863Z,99930.81
2022-09-03T22:59:35.581Z,99932.59
2022-09-03T23:02:18.337Z,99930.03
2022-09-03T23:04:49.987Z,99937.34
2022-09-03T23:07:18.875Z,99939.91
2022-09-03T23:10:11.665Z,99937.84
2022-09-03T23:12:45.866Z,99934.69
2022-09-03T23:15:23.778Z,99941.34
2022-09-03T23:18:00.540Z,99943.75
2022-09-03T23:20:29.185Z,99933.91
2022-09-03T23:23:04.740Z,99936.16
2022-09-03T23:25:33.972Z,99951.41
2022-09-03T23:28:07.027Z,99959.38
2022-09-03T23:30:33.705Z,99956.19
2022-09-03T23:33:00.353Z,99950.97
2022-09-03T23:35:30.445Z,99960.84
2022-09-03T23:38:15.714Z,99959.56
2022-09-03T23:40:49.945Z,99959.41
2022-09-03T23:43:19.273Z,99961.16
2022-09-03T23:46:16.089Z,99961.84
2022-09-03T23:48:45.737Z,99967.25
2022-09-03T23:51:30.473Z,99964.53
2022-09-03T23:54:34.249Z,99958.50
2022-09-03T23:57:25.817Z,99958.19
